createdAt,value
2018-12-03T00:00:19.052Z,10.31
2018-12-03T00:01:18.934Z,10.31
2018-12-03T00:02:18.882Z,10.32
2018-12-03T00:03:18.656Z,10.34
2018-12-03T00:04:18.763Z,10.35
2018-12-03T00:05:19.110Z,10.34
2018-12-03T00:06:18.777Z,10.33
2018-12-03T00:07:18.762Z,10.33
2018-12-03T00:08:18.884Z,10.33
2018-12-03T00:09:18.684Z,10.32
2018-12-03T00:10:18.927Z,10.31
2018-12-03T00:11:18.868Z,10.3
2018-12-03T00:12:18.808Z,10.29
2018-12-03T00:13:18.709Z,10.27
2018-12-03T00:14:18.853Z,10.3
2018-12-03T00:15:18.735Z,10.32
2018-12-03T00:16:18.676Z,10.31
2018-12-03T00:17:18.676Z,10.33
2018-12-03T00:18:19.170Z,10.3
2018-12-03T00:19:18.792Z,10.3
2018-12-03T00:20:18.877Z,10.31
2018-12-03T00:21:18.782Z,10.32
2018-12-03T00:22:18.647Z,10.34
2018-12-03T00:23:18.859Z,10.32
2018-12-03T00:24:18.885Z,10.34
2018-12-03T00:25:18.872Z,10.33
2018-12-03T00:26:18.793Z,10.34
2018-12-03T00:27:18.655Z,10.33
2018-12-03T00:28:18.827Z,10.33
2018-12-03T00:29:18.881Z,10.33
2018-12-03T00:30:18.702Z,10.35
2018-12-03T00:31:18.730Z,10.32
2018-12-03T00:32:18.851Z,10.31
2018-12-03T00:33:18.740Z,10.32
2018-12-03T00:34:18.935Z,10.32
2018-12-03T00:35:18.866Z,10.3
2018-12-03T00:36:18.643Z,10.3
2018-12-03T00:37:18.681Z,10.33
2018-12-03T00:38:18.677Z,10.33
2018-12-03T00:39:18.731Z,10.32
2018-12-03T00:40:18.820Z,10.32
2018-12-03T00:41:18.767Z,10.32
2018-12-03T00:42:18.683Z,10.33
2018-12-03T00:43:18.643Z,10.3
2018-12-03T00:44:18.918Z,10.31
2018-12-03T00:45:18.649Z,10.33
2018-12-03T00:46:18.688Z,10.37
2018-12-03T00:47:18.951Z,10.37
2018-12-03T00:48:18.841Z,10.35
2018-12-03T00:49:18.703Z,10.36
2018-12-03T00:50:18.791Z,10.34
2018-12-03T00:51:18.813Z,10.35
2018-12-03T00:52:18.676Z,10.34
2018-12-03T00:53:18.968Z,10.36
2018-12-03T00:54:18.834Z,10.36
2018-12-03T00:55:18.841Z,10.34
2018-12-03T00:56:18.676Z,10.33
2018-12-03T00:57:18.798Z,10.35
2018-12-03T00:58:18.726Z,10.36
2018-12-03T00:59:18.913Z,10.34
2018-12-03T01:00:18.832Z,10.35
2018-12-03T01:01:18.612Z,10.35
2018-12-03T01:02:18.787Z,10.35
2018-12-03T01:03:18.882Z,10.35
2018-12-03T01:04:18.829Z,10.34
2018-12-03T01:05:18.631Z,10.34
2018-12-03T01:06:18.804Z,10.36
2018-12-03T01:07:18.625Z,10.36
2018-12-03T01:08:18.725Z,10.35
2018-12-03T01:09:19.003Z,10.35
2018-12-03T01:10:18.701Z,10.32
2018-12-03T01:11:18.743Z,10.35
2018-12-03T01:12:18.817Z,10.36
2018-12-03T01:13:18.640Z,10.35
2018-12-03T01:14:18.789Z,10.37
2018-12-03T01:15:18.579Z,10.35
2018-12-03T01:16:18.818Z,10.38
2018-12-03T01:17:18.683Z,10.36
2018-12-03T01:18:18.606Z,10.35
2018-12-03T01:19:18.671Z,10.36
2018-12-03T01:20:18.652Z,10.35
2018-12-03T01:21:18.712Z,10.35
2018-12-03T01:22:18.640Z,10.35
2018-12-03T01:23:18.621Z,10.34
2018-12-03T01:24:18.617Z,10.34
2018-12-03T01:25:18.667Z,10.37
2018-12-03T01:26:18.668Z,10.36
2018-12-03T01:27:18.614Z,10.35
2018-12-03T01:28:18.976Z,10.37
2018-12-03T01:29:18.940Z,10.35
2018-12-03T01:30:18.675Z,10.35
2018-12-03T01:31:18.569Z,10.35
2018-12-03T01:32:18.602Z,10.34
2018-12-03T01:33:18.609Z,10.32
2018-12-03T01:34:18.559Z,10.33
2018-12-03T01:35:18.795Z,10.33
2018-12-03T01:36:19.011Z,10.31
2018-12-03T01:37:18.658Z,10.29
2018-12-03T01:38:18.662Z,10.32
2018-12-03T01:39:18.595Z,10.32
2018-12-03T01:40:18.604Z,10.36
2018-12-03T01:41:18.612Z,10.32
2018-12-03T01:42:18.538Z,10.34
2018-12-03T01:43:18.760Z,10.32
2018-12-03T01:44:18.549Z,10.33
2018-12-03T01:45:18.671Z,10.32
2018-12-03T01:46:18.750Z,10.32
2018-12-03T01:47:18.566Z,10.33
2018-12-03T01:48:19.442Z,10.36
2018-12-03T01:49:18.869Z,10.35
2018-12-03T01:50:18.794Z,10.36
2018-12-03T01:51:18.689Z,10.35
2018-12-03T01:52:18.761Z,10.33
2018-12-03T01:53:18.782Z,10.35
2018-12-03T01:54:18.633Z,10.35
2018-12-03T01:55:18.610Z,10.32
2018-12-03T01:56:18.786Z,10.35
2018-12-03T01:57:18.951Z,10.35
2018-12-03T01:58:18.769Z,10.34
2018-12-03T01:59:18.660Z,10.35
2018-12-03T02:00:18.714Z,10.35
2018-12-03T02:01:18.676Z,10.36
2018-12-03T02:02:18.623Z,10.35
2018-12-03T02:03:18.676Z,10.36
2018-12-03T02:04:18.611Z,10.35
2018-12-03T02:05:18.608Z,10.35
2018-12-03T02:06:18.639Z,10.36
2018-12-03T02:07:18.761Z,10.36
2018-12-03T02:08:18.823Z,10.34
2018-12-03T02:09:18.700Z,10.37
2018-12-03T02:10:18.631Z,10.35
2018-12-03T02:11:18.556Z,10.37
2018-12-03T02:12:18.736Z,10.38
2018-12-03T02:13:18.583Z,10.37
2018-12-03T02:14:19.100Z,10.38
2018-12-03T02:15:18.887Z,10.38
2018-12-03T02:16:18.587Z,10.35
2018-12-03T02:17:18.569Z,10.34
2018-12-03T02:18:18.619Z,10.37
2018-12-03T02:19:18.854Z,10.34
2018-12-03T02:20:18.604Z,10.37
2018-12-03T02:21:18.559Z,10.37
2018-12-03T02:22:18.651Z,10.38
2018-12-03T02:23:18.677Z,10.35
2018-12-03T02:24:18.736Z,10.36
2018-12-03T02:25:18.602Z,10.36
2018-12-03T02:26:18.626Z,10.35
2018-12-03T02:27:18.617Z,10.35
2018-12-03T02:28:18.598Z,10.37
2018-12-03T02:29:18.544Z,10.35
2018-12-03T02:30:18.574Z,10.34
2018-12-03T02:31:18.607Z,10.35
2018-12-03T02:32:18.770Z,10.37
2018-12-03T02:33:18.595Z,10.39
2018-12-03T02:34:18.612Z,10.37
2018-12-03T02:35:18.587Z,10.37
2018-12-03T02:36:18.516Z,10.37
2018-12-03T02:37:18.655Z,10.4
2018-12-03T02:38:18.771Z,10.38
2018-12-03T02:39:18.758Z,10.39
2018-12-03T02:40:18.606Z,10.38
2018-12-03T02:41:18.565Z,10.38
2018-12-03T02:42:18.706Z,10.38
2018-12-03T02:43:18.694Z,10.42
2018-12-03T02:44:18.541Z,10.38
2018-12-03T02:45:18.674Z,10.37
2018-12-03T02:46:18.702Z,10.4
2018-12-03T02:47:18.568Z,10.4
2018-12-03T02:48:18.648Z,10.36
2018-12-03T02:49:18.566Z,10.39
2018-12-03T02:50:18.624Z,10.38
2018-12-03T02:51:18.570Z,10.36
2018-12-03T02:52:18.541Z,10.37
2018-12-03T02:53:18.526Z,10.37
2018-12-03T02:54:18.523Z,10.38
2018-12-03T02:55:18.590Z,10.38
2018-12-03T02:56:18.517Z,10.38
2018-12-03T02:57:18.556Z,10.39
2018-12-03T02:58:18.526Z,10.39
2018-12-03T02:59:18.533Z,10.39
2018-12-03T03:00:18.500Z,10.38
2018-12-03T03:01:18.501Z,10.34
2018-12-03T03:02:18.811Z,10.38
2018-12-03T03:03:18.510Z,10.37
2018-12-03T03:04:18.488Z,10.38
2018-12-03T03:05:18.500Z,10.38
2018-12-03T03:06:18.465Z,10.38
2018-12-03T03:07:18.611Z,10.36
2018-12-03T03:08:18.468Z,10.34
2018-12-03T03:09:18.563Z,10.39
2018-12-03T03:10:18.498Z,10.38
2018-12-03T03:11:18.693Z,10.37
2018-12-03T03:12:18.522Z,10.37
2018-12-03T03:13:18.630Z,10.37
2018-12-03T03:14:18.695Z,10.37
2018-12-03T03:15:18.764Z,10.36
2018-12-03T03:16:18.606Z,10.35
2018-12-03T03:17:18.514Z,10.36
2018-12-03T03:18:18.655Z,10.35
2018-12-03T03:19:18.631Z,10.33
2018-12-03T03:20:18.737Z,10.38
2018-12-03T03:21:18.566Z,10.33
2018-12-03T03:22:18.549Z,10.32
2018-12-03T03:23:18.550Z,10.35
2018-12-03T03:24:18.533Z,10.34
2018-12-03T03:25:18.658Z,10.33
2018-12-03T03:26:18.461Z,10.36
2018-12-03T03:27:18.581Z,10.33
2018-12-03T03:28:18.480Z,10.38
2018-12-03T03:29:18.462Z,10.36
2018-12-03T03:30:18.686Z,10.35
2018-12-03T03:31:18.517Z,10.34
2018-12-03T03:32:18.503Z,10.32
2018-12-03T03:33:18.649Z,10.37
2018-12-03T03:34:18.522Z,10.34
2018-12-03T03:35:18.480Z,10.34
2018-12-03T03:36:18.618Z,10.33
2018-12-03T03:37:18.487Z,10.34
2018-12-03T03:38:18.494Z,10.32
2018-12-03T03:39:18.446Z,10.33
2018-12-03T03:40:18.482Z,10.32
2018-12-03T03:41:18.564Z,10.32
2018-12-03T03:42:18.435Z,10.31
2018-12-03T03:43:18.650Z,10.3
2018-12-03T03:44:18.573Z,10.31
2018-12-03T03:45:18.662Z,10.32
2018-12-03T03:46:18.539Z,10.3
2018-12-03T03:47:18.571Z,10.32
2018-12-03T03:48:18.723Z,10.31
2018-12-03T03:49:18.453Z,10.32
2018-12-03T03:50:18.563Z,10.31
2018-12-03T03:51:18.761Z,10.32
2018-12-03T03:52:18.479Z,10.32
2018-12-03T03:53:18.534Z,10.33
2018-12-03T03:54:18.418Z,10.33
2018-12-03T03:55:18.444Z,10.33
2018-12-03T03:56:18.503Z,10.31
2018-12-03T03:57:18.641Z,10.34
2018-12-03T03:58:18.646Z,10.33
2018-12-03T03:59:18.620Z,10.32
2018-12-03T04:00:18.448Z,10.31
2018-12-03T04:01:18.769Z,10.3
2018-12-03T04:02:18.682Z,10.34
2018-12-03T04:03:18.391Z,10.33
2018-12-03T04:04:18.611Z,10.3
2018-12-03T04:05:18.825Z,10.33
2018-12-03T04:06:18.558Z,10.32
2018-12-03T04:07:18.386Z,10.32
2018-12-03T04:08:18.478Z,10.31
2018-12-03T04:09:18.529Z,10.32
2018-12-03T04:10:18.623Z,10.33
2018-12-03T04:11:18.433Z,10.35
2018-12-03T04:12:18.432Z,10.35
2018-12-03T04:13:18.726Z,10.36
2018-12-03T04:14:18.538Z,10.36
2018-12-03T04:15:18.680Z,10.34
2018-12-03T04:16:18.486Z,10.34
2018-12-03T04:17:18.450Z,10.35
2018-12-03T04:18:18.516Z,10.37
2018-12-03T04:19:18.400Z,10.33
2018-12-03T04:20:18.605Z,10.34
2018-12-03T04:21:18.612Z,10.34
2018-12-03T04:22:18.477Z,10.35
2018-12-03T04:23:18.563Z,10.35
2018-12-03T04:24:18.730Z,10.35
2018-12-03T04:25:19.231Z,10.37
2018-12-03T04:26:19.215Z,10.37
2018-12-03T04:27:18.456Z,10.36
2018-12-03T04:28:18.383Z,10.35
2018-12-03T04:29:18.589Z,10.35
2018-12-03T04:30:18.599Z,10.37
2018-12-03T04:31:18.482Z,10.39
2018-12-03T04:32:18.515Z,10.4
2018-12-03T04:33:18.392Z,10.41
2018-12-03T04:34:18.400Z,10.41
2018-12-03T04:35:18.380Z,10.4
2018-12-03T04:36:18.526Z,10.42
2018-12-03T04:37:18.412Z,10.4
2018-12-03T04:38:18.363Z,10.41
2018-12-03T04:39:18.403Z,10.41
2018-12-03T04:40:18.467Z,10.42
2018-12-03T04:41:18.372Z,10.45
2018-12-03T04:42:18.492Z,10.43
2018-12-03T04:43:18.470Z,10.44
2018-12-03T04:44:18.450Z,10.45
2018-12-03T04:45:18.416Z,10.44
2018-12-03T04:46:18.390Z,10.46
2018-12-03T04:47:18.428Z,10.44
2018-12-03T04:48:18.502Z,10.44
2018-12-03T04:49:18.339Z,10.45
2018-12-03T04:50:18.554Z,10.43
2018-12-03T04:51:18.410Z,10.45
2018-12-03T04:52:18.371Z,10.45
2018-12-03T04:53:18.519Z,10.46
2018-12-03T04:54:19.246Z,10.46
2018-12-03T04:55:18.383Z,10.47
2018-12-03T04:56:18.453Z,10.46
2018-12-03T04:57:18.498Z,10.45
2018-12-03T04:58:18.453Z,10.47
2018-12-03T04:59:18.384Z,10.46
2018-12-03T05:00:18.567Z,10.46
2018-12-03T05:01:18.779Z,10.45
2018-12-03T05:02:18.679Z,10.49
2018-12-03T05:03:18.576Z,10.46
2018-12-03T05:04:18.359Z,10.48
2018-12-03T05:05:18.461Z,10.45
2018-12-03T05:06:18.588Z,10.44
2018-12-03T05:07:18.331Z,10.47
2018-12-03T05:08:18.567Z,10.48
2018-12-03T05:09:18.497Z,10.47
2018-12-03T05:10:18.378Z,10.47
2018-12-03T05:11:18.555Z,10.48
2018-12-03T05:12:18.450Z,10.46
2018-12-03T05:13:19.183Z,10.47
2018-12-03T05:14:18.412Z,10.46
2018-12-03T05:15:18.426Z,10.44
2018-12-03T05:16:18.423Z,10.46
2018-12-03T05:17:18.473Z,10.46
2018-12-03T05:18:18.333Z,10.47
2018-12-03T05:19:18.509Z,10.47
2018-12-03T05:20:18.498Z,10.46
2018-12-03T05:21:18.442Z,10.48
2018-12-03T05:22:18.340Z,10.48
2018-12-03T05:23:18.369Z,10.49
2018-12-03T05:24:18.569Z,10.48
2018-12-03T05:25:19.962Z,10.49
2018-12-03T05:26:18.465Z,10.49
2018-12-03T05:27:18.506Z,10.48
2018-12-03T05:28:18.378Z,10.47
2018-12-03T05:29:18.516Z,10.49
2018-12-03T05:30:18.285Z,10.47
2018-12-03T05:31:18.359Z,10.47
2018-12-03T05:32:18.371Z,10.46
2018-12-03T05:33:18.465Z,10.46
2018-12-03T05:34:18.340Z,10.47
2018-12-03T05:35:18.412Z,10.48
2018-12-03T05:36:18.375Z,10.47
2018-12-03T05:37:18.529Z,10.46
2018-12-03T05:38:18.301Z,10.45
2018-12-03T05:39:18.421Z,10.46
2018-12-03T05:40:18.545Z,10.45
2018-12-03T05:41:18.393Z,10.45
2018-12-03T05:42:18.309Z,10.45
2018-12-03T05:43:18.312Z,10.48
2018-12-03T05:44:19.209Z,10.46
2018-12-03T05:45:18.363Z,10.44
2018-12-03T05:46:18.360Z,10.42
2018-12-03T05:47:18.362Z,10.42
2018-12-03T05:48:18.419Z,10.44
2018-12-03T05:49:18.394Z,10.45
2018-12-03T05:50:18.365Z,10.44
2018-12-03T05:51:18.473Z,10.45
2018-12-03T05:52:18.417Z,10.45
2018-12-03T05:53:18.439Z,10.43
2018-12-03T05:54:18.315Z,10.44
2018-12-03T05:55:18.569Z,10.46
2018-12-03T05:56:18.268Z,10.46
2018-12-03T05:57:18.358Z,10.46
2018-12-03T05:58:18.440Z,10.47
2018-12-03T05:59:18.423Z,10.46
2018-12-03T06:00:18.322Z,10.46
2018-12-03T06:01:18.342Z,10.47
2018-12-03T06:02:18.666Z,10.45
2018-12-03T06:03:18.317Z,10.45
2018-12-03T06:04:18.626Z,10.46
2018-12-03T06:05:19.127Z,10.47
2018-12-03T06:06:18.303Z,10.46
2018-12-03T06:07:18.367Z,10.46
2018-12-03T06:08:18.401Z,10.46
2018-12-03T06:09:18.537Z,10.45
2018-12-03T06:10:18.330Z,10.44
2018-12-03T06:11:18.339Z,10.45
2018-12-03T06:12:18.544Z,10.45
2018-12-03T06:13:18.472Z,10.45
2018-12-03T06:14:18.284Z,10.43
2018-12-03T06:15:18.465Z,10.45
2018-12-03T06:16:18.247Z,10.45
2018-12-03T06:17:18.275Z,10.43
2018-12-03T06:18:18.211Z,10.44
2018-12-03T06:19:18.272Z,10.45
2018-12-03T06:20:18.267Z,10.44
2018-12-03T06:21:18.556Z,10.44
2018-12-03T06:22:18.240Z,10.42
2018-12-03T06:23:18.281Z,10.43
2018-12-03T06:24:18.217Z,10.45
2018-12-03T06:25:18.337Z,10.44
2018-12-03T06:26:18.369Z,10.43
2018-12-03T06:27:18.277Z,10.41
2018-12-03T06:28:18.279Z,10.44
2018-12-03T06:29:19.118Z,10.44
2018-12-03T06:30:18.304Z,10.42
2018-12-03T06:31:18.468Z,10.43
2018-12-03T06:32:18.378Z,10.44
2018-12-03T06:33:18.583Z,10.42
2018-12-03T06:34:19.339Z,10.45
2018-12-03T06:35:18.299Z,10.41
2018-12-03T06:36:18.285Z,10.4
2018-12-03T06:37:18.457Z,10.36
2018-12-03T06:38:18.381Z,10.38
2018-12-03T06:39:18.424Z,10.39
2018-12-03T06:40:19.134Z,10.41
2018-12-03T06:41:18.609Z,10.38
2018-12-03T06:42:18.480Z,10.38
2018-12-03T06:43:18.239Z,10.36
2018-12-03T06:44:18.212Z,10.33
2018-12-03T06:45:18.307Z,10.35
2018-12-03T06:46:18.493Z,10.34
2018-12-03T06:47:18.382Z,10.35
2018-12-03T06:48:18.581Z,10.35
2018-12-03T06:49:18.484Z,10.32
2018-12-03T06:50:18.242Z,10.33
2018-12-03T06:51:18.227Z,10.32
2018-12-03T06:52:18.427Z,10.32
2018-12-03T06:53:18.400Z,10.31
2018-12-03T06:54:18.645Z,10.32
2018-12-03T06:55:18.236Z,10.32
2018-12-03T06:56:18.316Z,10.3
2018-12-03T06:57:18.274Z,10.29
2018-12-03T06:58:18.244Z,10.29
2018-12-03T06:59:18.408Z,10.29
2018-12-03T07:00:18.325Z,10.28
2018-12-03T07:01:18.266Z,10.28
2018-12-03T07:02:18.366Z,10.29
2018-12-03T07:03:18.316Z,10.27
2018-12-03T07:04:18.443Z,10.25
2018-12-03T07:05:18.385Z,10.25
2018-12-03T07:06:18.294Z,10.25
2018-12-03T07:07:18.356Z,10.26
2018-12-03T07:08:18.417Z,10.27
2018-12-03T07:09:18.542Z,10.29
2018-12-03T07:10:18.278Z,10.29
2018-12-03T07:11:18.233Z,10.29
2018-12-03T07:12:18.250Z,10.29
2018-12-03T07:13:18.387Z,10.28
2018-12-03T07:14:18.245Z,10.29
2018-12-03T07:15:18.271Z,10.32
2018-12-03T07:16:18.235Z,10.3
2018-12-03T07:17:18.275Z,10.3
2018-12-03T07:18:18.349Z,10.31
2018-12-03T07:19:18.342Z,10.31
2018-12-03T07:20:18.336Z,10.31
2018-12-03T07:21:19.080Z,10.33
2018-12-03T07:22:18.618Z,10.33
2018-12-03T07:23:18.322Z,10.32
2018-12-03T07:24:18.279Z,10.31
2018-12-03T07:25:18.147Z,10.34
2018-12-03T07:26:18.260Z,10.32
2018-12-03T07:27:18.260Z,10.34
2018-12-03T07:28:18.270Z,10.33
2018-12-03T07:29:18.347Z,10.34
2018-12-03T07:30:18.223Z,10.33
2018-12-03T07:31:18.426Z,10.32
2018-12-03T07:32:18.200Z,10.31
2018-12-03T07:33:18.383Z,10.31
2018-12-03T07:34:18.125Z,10.29
2018-12-03T07:35:18.952Z,10.31
2018-12-03T07:36:18.193Z,10.31
2018-12-03T07:37:18.161Z,10.3
2018-12-03T07:38:19.023Z,10.29
2018-12-03T07:39:18.364Z,10.29
2018-12-03T07:40:18.372Z,10.29
2018-12-03T07:41:18.219Z,10.28
2018-12-03T07:42:18.210Z,10.31
2018-12-03T07:43:18.266Z,10.3
2018-12-03T07:44:18.241Z,10.29
2018-12-03T07:45:18.365Z,10.32
2018-12-03T07:46:18.334Z,10.37
2018-12-03T07:47:18.207Z,10.37
2018-12-03T07:48:18.202Z,10.38
2018-12-03T07:49:18.203Z,10.4
2018-12-03T07:50:18.558Z,10.39
2018-12-03T07:51:18.202Z,10.38
2018-12-03T07:52:18.224Z,10.37
2018-12-03T07:53:18.220Z,10.37
2018-12-03T07:54:18.169Z,10.38
2018-12-03T07:55:18.179Z,10.37
2018-12-03T07:56:18.169Z,10.37
2018-12-03T07:57:18.142Z,10.38
2018-12-03T07:58:18.199Z,10.37
2018-12-03T07:59:18.140Z,10.37
2018-12-03T08:00:18.203Z,10.37
2018-12-03T08:01:18.217Z,10.38
2018-12-03T08:02:18.174Z,10.39
2018-12-03T08:03:18.130Z,10.38
2018-12-03T08:04:18.215Z,10.36
2018-12-03T08:05:18.239Z,10.37
2018-12-03T08:06:18.141Z,10.4
2018-12-03T08:07:18.229Z,10.4
2018-12-03T08:08:18.437Z,10.38
2018-12-03T08:09:18.326Z,10.41
2018-12-03T08:10:18.216Z,10.4
2018-12-03T08:11:18.394Z,10.41
2018-12-03T08:12:18.267Z,10.44
2018-12-03T08:13:18.218Z,10.43
2018-12-03T08:14:18.366Z,10.45
2018-12-03T08:15:18.201Z,10.45
2018-12-03T08:16:18.161Z,10.44
2018-12-03T08:17:18.450Z,10.47
2018-12-03T08:18:20.404Z,10.47
2018-12-03T08:19:18.501Z,10.48
2018-12-03T08:20:18.318Z,10.47
2018-12-03T08:21:18.463Z,10.46
2018-12-03T08:22:18.426Z,10.48
2018-12-03T08:23:18.204Z,10.48
2018-12-03T08:24:18.262Z,10.48
2018-12-03T08:25:19.040Z,10.5
2018-12-03T08:26:20.618Z,10.5
2018-12-03T08:27:18.317Z,10.52
2018-12-03T08:28:18.263Z,10.51
2018-12-03T08:29:18.076Z,10.5
2018-12-03T08:30:18.333Z,10.5
2018-12-03T08:31:18.363Z,10.51
2018-12-03T08:32:18.310Z,10.49
2018-12-03T08:33:18.193Z,10.5
2018-12-03T08:34:18.128Z,10.5
2018-12-03T08:35:18.223Z,10.5
2018-12-03T08:36:18.346Z,10.51
2018-12-03T08:37:18.182Z,10.53
2018-12-03T08:38:18.214Z,10.55
2018-12-03T08:39:18.166Z,10.51
2018-12-03T08:40:18.259Z,10.52
2018-12-03T08:41:18.491Z,10.52
2018-12-03T08:42:19.296Z,10.53
2018-12-03T08:43:18.210Z,10.56
2018-12-03T08:44:18.187Z,10.55
2018-12-03T08:45:18.374Z,10.56
2018-12-03T08:46:18.350Z,10.57
2018-12-03T08:47:18.117Z,10.53
2018-12-03T08:48:18.161Z,10.54
2018-12-03T08:49:18.212Z,10.53
2018-12-03T08:50:18.165Z,10.54
2018-12-03T08:51:18.454Z,10.55
2018-12-03T08:52:18.107Z,10.55
2018-12-03T08:53:19.139Z,10.55
2018-12-03T08:54:18.226Z,10.55
2018-12-03T08:55:18.213Z,10.52
2018-12-03T08:56:18.324Z,10.54
2018-12-03T08:57:19.428Z,10.53
2018-12-03T08:58:21.372Z,10.53
2018-12-03T08:59:18.435Z,10.54
2018-12-03T09:00:18.927Z,10.5
2018-12-03T09:01:18.478Z,10.53
2018-12-03T09:02:18.232Z,10.51
2018-12-03T09:03:18.123Z,10.51
2018-12-03T09:04:18.312Z,10.5
2018-12-03T09:05:21.142Z,10.5
2018-12-03T09:06:18.591Z,10.51
2018-12-03T09:07:20.649Z,10.5
2018-12-03T09:08:18.084Z,10.52
2018-12-03T09:09:18.174Z,10.51
2018-12-03T09:10:18.453Z,10.5
2018-12-03T09:11:18.288Z,10.5
2018-12-03T09:12:22.239Z,10.5
2018-12-03T09:13:18.295Z,10.5
2018-12-03T09:14:18.336Z,10.51
2018-12-03T09:15:18.227Z,10.5
2018-12-03T09:16:18.093Z,10.52
2018-12-03T09:17:18.101Z,10.52
2018-12-03T09:18:18.957Z,10.55
2018-12-03T09:19:18.937Z,10.53
2018-12-03T09:20:18.264Z,10.5
2018-12-03T09:21:18.335Z,10.51
2018-12-03T09:22:18.190Z,10.5
2018-12-03T09:23:21.641Z,10.5
2018-12-03T09:24:18.230Z,10.52
2018-12-03T09:25:19.203Z,10.53
2018-12-03T09:26:18.164Z,10.51
2018-12-03T09:27:18.378Z,10.5
2018-12-03T09:28:18.200Z,10.47
2018-12-03T09:29:18.185Z,10.45
2018-12-03T09:30:18.134Z,10.46
2018-12-03T09:31:18.178Z,10.45
2018-12-03T09:32:18.122Z,10.44
2018-12-03T09:33:18.133Z,10.41
2018-12-03T09:34:18.206Z,10.42
2018-12-03T09:35:18.816Z,10.41
2018-12-03T09:36:18.139Z,10.43
2018-12-03T09:37:19.192Z,10.41
2018-12-03T09:38:18.136Z,10.43
2018-12-03T09:39:18.139Z,10.45
2018-12-03T09:40:18.162Z,10.48
2018-12-03T09:41:18.096Z,10.46
2018-12-03T09:42:18.079Z,10.45
2018-12-03T09:43:18.226Z,10.44
2018-12-03T09:44:18.221Z,10.38
2018-12-03T09:45:18.238Z,10.32
2018-12-03T09:46:18.047Z,10.29
2018-12-03T09:47:18.111Z,10.3
2018-12-03T09:48:18.112Z,10.27
2018-12-03T09:49:18.237Z,10.26
2018-12-03T09:50:18.272Z,10.25
2018-12-03T09:51:18.099Z,10.25
2018-12-03T09:52:18.270Z,10.25
2018-12-03T09:53:18.011Z,10.2
2018-12-03T09:54:18.017Z,10.2
2018-12-03T09:55:18.141Z,10.19
2018-12-03T09:56:18.067Z,10.2
2018-12-03T09:57:18.334Z,10.17
2018-12-03T09:58:18.042Z,10.17
2018-12-03T09:59:18.206Z,10.16
2018-12-03T10:00:18.127Z,10.18
2018-12-03T10:01:18.170Z,10.17
2018-12-03T10:02:18.192Z,10.19
2018-12-03T10:03:18.337Z,10.2
2018-12-03T10:04:18.038Z,10.21
2018-12-03T10:05:18.131Z,10.23
2018-12-03T10:06:18.105Z,10.22
2018-12-03T10:07:18.156Z,10.25
2018-12-03T10:08:18.065Z,10.3
2018-12-03T10:09:18.139Z,10.26
2018-12-03T10:10:18.179Z,10.25
2018-12-03T10:11:18.462Z,10.2
2018-12-03T10:12:18.577Z,10.19
2018-12-03T10:13:18.335Z,10.21
2018-12-03T10:14:18.109Z,10.19
2018-12-03T10:15:18.165Z,10.18
2018-12-03T10:16:18.002Z,10.19
2018-12-03T10:17:18.122Z,10.2
2018-12-03T10:18:18.752Z,10.21
2018-12-03T10:19:18.199Z,10.19
2018-12-03T10:20:18.319Z,10.17
2018-12-03T10:21:18.037Z,10.15
2018-12-03T10:22:18.123Z,10.21
2018-12-03T10:23:18.254Z,10.21
2018-12-03T10:24:18.417Z,10.19
2018-12-03T10:25:18.182Z,10.17
2018-12-03T10:26:18.018Z,10.15
2018-12-03T10:27:18.122Z,10.19
2018-12-03T10:28:18.718Z,10.17
2018-12-03T10:29:18.244Z,10.15
2018-12-03T10:30:18.229Z,10.15
2018-12-03T10:31:17.965Z,10.14
2018-12-03T10:32:18.198Z,10.14
2018-12-03T10:33:18.154Z,10.17
2018-12-03T10:34:18.158Z,10.22
2018-12-03T10:35:18.222Z,10.23
2018-12-03T10:36:18.046Z,10.23
2018-12-03T10:37:18.055Z,10.19
2018-12-03T10:38:18.051Z,10.23
2018-12-03T10:39:18.161Z,10.22
2018-12-03T10:40:21.046Z,10.24
2018-12-03T10:41:17.943Z,10.26
2018-12-03T10:42:18.279Z,10.23
2018-12-03T10:43:18.089Z,10.2
2018-12-03T10:44:18.113Z,10.21
2018-12-03T10:45:18.007Z,10.19
2018-12-03T10:46:17.952Z,10.23
2018-12-03T10:47:18.597Z,10.22
2018-12-03T10:48:18.159Z,10.21
2018-12-03T10:49:18.151Z,10.21
2018-12-03T10:50:22.614Z,10.19
2018-12-03T10:51:18.187Z,10.22
2018-12-03T10:52:17.969Z,10.22
2018-12-03T10:53:18.225Z,10.21
2018-12-03T10:54:18.223Z,10.22
2018-12-03T10:55:18.340Z,10.2
2018-12-03T10:56:17.994Z,10.2
2018-12-03T10:57:18.220Z,10.19
2018-12-03T10:58:17.960Z,10.19
2018-12-03T10:59:17.953Z,10.19
2018-12-03T11:00:17.960Z,10.18
2018-12-03T11:01:17.964Z,10.17
2018-12-03T11:02:17.917Z,10.21
2018-12-03T11:03:17.942Z,10.22
2018-12-03T11:04:18.156Z,10.22
2018-12-03T11:05:17.921Z,10.21
2018-12-03T11:06:18.289Z,10.23
2018-12-03T11:07:18.057Z,10.25
2018-12-03T11:08:17.917Z,10.22
2018-12-03T11:09:17.924Z,10.21
2018-12-03T11:10:17.964Z,10.21
2018-12-03T11:11:18.075Z,10.2
2018-12-03T11:12:18.282Z,10.19
2018-12-03T11:13:18.153Z,10.19
2018-12-03T11:14:18.176Z,10.19
2018-12-03T11:15:17.904Z,10.2
2018-12-03T11:16:17.988Z,10.18
2018-12-03T11:17:17.892Z,10.19
2018-12-03T11:18:17.931Z,10.17
2018-12-03T11:19:17.888Z,10.24
2018-12-03T11:20:17.948Z,10.22
2018-12-03T11:21:18.288Z,10.18
2018-12-03T11:22:18.154Z,10.15
2018-12-03T11:23:17.975Z,10.15
2018-12-03T11:24:17.914Z,10.14
2018-12-03T11:25:18.201Z,10.11
2018-12-03T11:26:17.904Z,10.12
2018-12-03T11:27:18.129Z,10.11
2018-12-03T11:28:17.981Z,10.13
2018-12-03T11:29:17.991Z,10.11
2018-12-03T11:30:18.232Z,10.11
2018-12-03T11:31:18.309Z,10.09
2018-12-03T11:32:17.885Z,10.1
2018-12-03T11:33:17.930Z,10.11
2018-12-03T11:34:18.038Z,10.1
2018-12-03T11:35:18.232Z,10.06
2018-12-03T11:36:18.110Z,10.05
2018-12-03T11:37:17.971Z,10.02
2018-12-03T11:38:18.730Z,10.01
2018-12-03T11:39:18.126Z,10.03
2018-12-03T11:40:17.872Z,10.03
2018-12-03T11:41:17.933Z,10.06
2018-12-03T11:42:18.235Z,10.07
2018-12-03T11:43:18.252Z,10.06
2018-12-03T11:44:17.864Z,10.06
2018-12-03T11:45:18.103Z,10.03
2018-12-03T11:46:17.909Z,10.03
2018-12-03T11:47:18.054Z,10.05
2018-12-03T11:48:18.025Z,10.08
2018-12-03T11:49:18.298Z,10.07
2018-12-03T11:50:17.954Z,10.05
2018-12-03T11:51:17.849Z,10.04
2018-12-03T11:52:18.117Z,10.05
2018-12-03T11:53:18.642Z,10.05
2018-12-03T11:54:18.039Z,10.02
2018-12-03T11:55:17.980Z,10.09
2018-12-03T11:56:18.142Z,10.11
2018-12-03T11:57:17.908Z,10.1
2018-12-03T11:58:25.698Z,10.08
2018-12-03T11:59:18.262Z,10.04
2018-12-03T12:00:17.916Z,10.05
2018-12-03T12:01:17.981Z,10.12
2018-12-03T12:02:18.343Z,10.11
2018-12-03T12:03:18.092Z,10.1
2018-12-03T12:04:18.045Z,10.08
2018-12-03T12:05:17.952Z,10.09
2018-12-03T12:06:18.257Z,10.09
2018-12-03T12:07:18.085Z,10.08
2018-12-03T12:08:17.941Z,10.1
2018-12-03T12:09:21.423Z,10.09
2018-12-03T12:10:21.197Z,10.11
2018-12-03T12:11:18.284Z,10.12
2018-12-03T12:12:18.019Z,10.13
2018-12-03T12:13:18.030Z,10.11
2018-12-03T12:14:18.355Z,10.12
2018-12-03T12:15:18.012Z,10.14
2018-12-03T12:16:18.116Z,10.14
2018-12-03T12:17:18.084Z,10.15
2018-12-03T12:18:18.124Z,10.15
2018-12-03T12:19:18.036Z,10.19
2018-12-03T12:20:17.965Z,10.21
2018-12-03T12:21:17.820Z,10.31
2018-12-03T12:22:17.827Z,10.29
2018-12-03T12:23:17.839Z,10.28
2018-12-03T12:24:17.830Z,10.26
2018-12-03T12:25:18.276Z,10.27
2018-12-03T12:26:17.880Z,10.29
2018-12-03T12:27:17.982Z,10.31
2018-12-03T12:28:17.840Z,10.32
2018-12-03T12:29:17.882Z,10.32
2018-12-03T12:30:17.958Z,10.33
2018-12-03T12:31:18.000Z,10.33
2018-12-03T12:32:18.208Z,10.34
2018-12-03T12:33:18.429Z,10.33
2018-12-03T12:34:17.867Z,10.35
2018-12-03T12:35:18.252Z,10.35
2018-12-03T12:36:18.648Z,10.33
2018-12-03T12:37:17.924Z,10.34
2018-12-03T12:38:17.918Z,10.34
2018-12-03T12:39:17.847Z,10.34
2018-12-03T12:40:17.863Z,10.38
2018-12-03T12:41:17.834Z,10.37
2018-12-03T12:42:17.796Z,10.36
2018-12-03T12:43:17.874Z,10.35
2018-12-03T12:44:17.830Z,10.35
2018-12-03T12:45:17.934Z,10.36
2018-12-03T12:46:17.838Z,10.35
2018-12-03T12:47:17.814Z,10.39
2018-12-03T12:48:17.934Z,10.38
2018-12-03T12:49:17.877Z,10.39
2018-12-03T12:50:17.944Z,10.39
2018-12-03T12:51:17.961Z,10.39
2018-12-03T12:52:18.140Z,10.41
2018-12-03T12:53:17.832Z,10.45
2018-12-03T12:54:17.830Z,10.44